sensor_id;sensor_type;location;lat;lon;timestamp;P1;durP1;ratioP1;P2;durP2;ratioP2
1699;SDS011;847;48.058;7.810;2023-02-21T00:00:17;5.40;;;2.73;;
1699;SDS011;847;48.058;7.810;2023-02-21T00:03:01;6.03;;;2.73;;
1699;SDS011;847;48.058;7.810;2023-02-21T00:05:47;6.90;;;3.10;;
1699;SDS011;847;48.058;7.810;2023-02-21T00:08:31;7.50;;;4.30;;
1699;SDS011;847;48.058;7.810;2023-02-21T00:11:16;12.67;;;9.50;;
1699;SDS011;847;48.058;7.810;2023-02-21T00:14:00;14.37;;;9.47;;
1699;SDS011;847;48.058;7.810;2023-02-21T00:16:45;13.63;;;8.80;;
1699;SDS011;847;48.058;7.810;2023-02-21T00:19:29;8.07;;;5.47;;
1699;SDS011;847;48.058;7.810;2023-02-21T00:22:15;6.40;;;4.50;;
1699;SDS011;847;48.058;7.810;2023-02-21T00:24:59;3.77;;;3.30;;
1699;SDS011;847;48.058;7.810;2023-02-21T00:27:43;5.37;;;3.30;;
1699;SDS011;847;48.058;7.810;2023-02-21T00:30:27;5.33;;;3.50;;
1699;SDS011;847;48.058;7.810;2023-02-21T00:33:12;3.63;;;3.23;;
1699;SDS011;847;48.058;7.810;2023-02-21T00:35:56;5.30;;;3.60;;
1699;SDS011;847;48.058;7.810;2023-02-21T00:38:42;7.07;;;3.63;;
1699;SDS011;847;48.058;7.810;2023-02-21T00:41:26;5.07;;;4.00;;
1699;SDS011;847;48.058;7.810;2023-02-21T00:44:10;4.57;;;3.43;;
1699;SDS011;847;48.058;7.810;2023-02-21T00:46:55;5.60;;;4.03;;
1699;SDS011;847;48.058;7.810;2023-02-21T00:49:39;14.57;;;4.27;;
1699;SDS011;847;48.058;7.810;2023-02-21T00:52:24;7.07;;;4.40;;
1699;SDS011;847;48.058;7.810;2023-02-21T00:55:10;7.30;;;4.20;;
1699;SDS011;847;48.058;7.810;2023-02-21T00:57:54;4.60;;;2.80;;
1699;SDS011;847;48.058;7.810;2023-02-21T01:00:38;7.23;;;3.87;;
1699;SDS011;847;48.058;7.810;2023-02-21T01:03:23;7.60;;;3.80;;
1699;SDS011;847;48.058;7.810;2023-02-21T01:06:08;5.10;;;2.70;;
1699;SDS011;847;48.058;7.810;2023-02-21T01:08:52;5.73;;;3.27;;
1699;SDS011;847;48.058;7.810;2023-02-21T01:11:38;4.30;;;3.50;;
1699;SDS011;847;48.058;7.810;2023-02-21T01:14:22;5.83;;;3.20;;
1699;SDS011;847;48.058;7.810;2023-02-21T01:17:06;5.37;;;3.33;;
1699;SDS011;847;48.058;7.810;2023-02-21T01:19:50;4.17;;;2.80;;
1699;SDS011;847;48.058;7.810;2023-02-21T01:22:35;3.67;;;3.37;;
1699;SDS011;847;48.058;7.810;2023-02-21T01:25:19;3.53;;;3.13;;
1699;SDS011;847;48.058;7.810;2023-02-21T01:28:05;5.10;;;3.10;;
1699;SDS011;847;48.058;7.810;2023-02-21T01:30:50;4.83;;;3.27;;
1699;SDS011;847;48.058;7.810;2023-02-21T01:33:35;4.33;;;2.97;;
1699;SDS011;847;48.058;7.810;2023-02-21T01:36:20;7.50;;;3.40;;
1699;SDS011;847;48.058;7.810;2023-02-21T01:39:05;5.53;;;3.20;;
1699;SDS011;847;48.058;7.810;2023-02-21T01:41:49;4.63;;;3.43;;
1699;SDS011;847;48.058;7.810;2023-02-21T01:44:37;5.93;;;3.67;;
1699;SDS011;847;48.058;7.810;2023-02-21T01:47:22;3.87;;;3.37;;
1699;SDS011;847;48.058;7.810;2023-02-21T01:50:09;6.20;;;3.63;;
1699;SDS011;847;48.058;7.810;2023-02-21T01:52:58;2.40;;;1.73;;
1699;SDS011;847;48.058;7.810;2023-02-21T01:55:45;3.00;;;2.70;;
1699;SDS011;847;48.058;7.810;2023-02-21T01:58:29;3.23;;;2.93;;
1699;SDS011;847;48.058;7.810;2023-02-21T02:01:20;4.00;;;3.43;;
1699;SDS011;847;48.058;7.810;2023-02-21T02:04:10;3.37;;;2.80;;
1699;SDS011;847;48.058;7.810;2023-02-21T02:06:54;5.00;;;3.10;;
1699;SDS011;847;48.058;7.810;2023-02-21T02:09:39;3.90;;;3.10;;
1699;SDS011;847;48.058;7.810;2023-02-21T02:15:33;3.37;;;2.73;;
1699;SDS011;847;48.058;7.810;2023-02-21T02:18:15;5.57;;;3.10;;
1699;SDS011;847;48.058;7.810;2023-02-21T02:21:03;3.33;;;2.40;;
1699;SDS011;847;48.058;7.810;2023-02-21T02:23:59;4.43;;;2.60;;
1699;SDS011;847;48.058;7.810;2023-02-21T02:36:07;3.93;;;3.53;;
1699;SDS011;847;48.058;7.810;2023-02-21T02:38:42;3.20;;;2.47;;
1699;SDS011;847;48.058;7.810;2023-02-21T02:41:19;2.73;;;2.53;;
1699;SDS011;847;48.058;7.810;2023-02-21T02:43:53;6.67;;;3.17;;
1699;SDS011;847;48.058;7.810;2023-02-21T02:46:23;5.30;;;2.50;;
1699;SDS011;847;48.058;7.810;2023-02-21T02:48:56;3.10;;;2.80;;
1699;SDS011;847;48.058;7.810;2023-02-21T02:51:27;5.10;;;3.27;;
1699;SDS011;847;48.058;7.810;2023-02-21T02:53:54;4.60;;;2.93;;
1699;SDS011;847;48.058;7.810;2023-02-21T02:56:21;4.10;;;2.70;;
1699;SDS011;847;48.058;7.810;2023-02-21T02:58:51;4.40;;;2.70;;
1699;SDS011;847;48.058;7.810;2023-02-21T03:01:27;4.00;;;2.00;;
1699;SDS011;847;48.058;7.810;2023-02-21T03:04:17;2.67;;;2.43;;
1699;SDS011;847;48.058;7.810;2023-02-21T03:07:00;3.40;;;3.00;;
1699;SDS011;847;48.058;7.810;2023-02-21T03:09:33;3.20;;;2.87;;
1699;SDS011;847;48.058;7.810;2023-02-21T03:12:09;3.23;;;2.90;;
1699;SDS011;847;48.058;7.810;2023-02-21T03:14:44;6.27;;;2.40;;
1699;SDS011;847;48.058;7.810;2023-02-21T03:17:23;3.17;;;2.83;;
1699;SDS011;847;48.058;7.810;2023-02-21T03:19:53;4.03;;;3.37;;
1699;SDS011;847;48.058;7.810;2023-02-21T03:22:25;5.10;;;3.33;;
1699;SDS011;847;48.058;7.810;2023-02-21T03:24:55;6.27;;;3.50;;
1699;SDS011;847;48.058;7.810;2023-02-21T03:27:23;4.30;;;3.90;;
1699;SDS011;847;48.058;7.810;2023-02-21T03:29:51;5.87;;;3.90;;
1699;SDS011;847;48.058;7.810;2023-02-21T03:32:23;6.93;;;4.07;;
1699;SDS011;847;48.058;7.810;2023-02-21T03:34:51;5.87;;;4.23;;
1699;SDS011;847;48.058;7.810;2023-02-21T03:37:19;6.03;;;4.40;;
1699;SDS011;847;48.058;7.810;2023-02-21T03:39:55;5.63;;;4.37;;
1699;SDS011;847;48.058;7.810;2023-02-21T03:42:21;6.40;;;5.73;;
1699;SDS011;847;48.058;7.810;2023-02-21T03:44:48;6.70;;;4.80;;
1699;SDS011;847;48.058;7.810;2023-02-21T03:47:15;6.10;;;4.50;;
1699;SDS011;847;48.058;7.810;2023-02-21T03:49:41;8.30;;;6.00;;
1699;SDS011;847;48.058;7.810;2023-02-21T03:52:08;8.53;;;5.67;;
1699;SDS011;847;48.058;7.810;2023-02-21T03:54:36;9.97;;;4.93;;
1699;SDS011;847;48.058;7.810;2023-02-21T03:57:04;5.77;;;4.53;;
1699;SDS011;847;48.058;7.810;2023-02-21T03:59:31;7.10;;;4.63;;
1699;SDS011;847;48.058;7.810;2023-02-21T04:01:58;5.10;;;4.40;;
1699;SDS011;847;48.058;7.810;2023-02-21T04:04:25;6.20;;;4.40;;
1699;SDS011;847;48.058;7.810;2023-02-21T04:06:52;6.00;;;5.40;;
1699;SDS011;847;48.058;7.810;2023-02-21T04:09:18;5.50;;;4.70;;
1699;SDS011;847;48.058;7.810;2023-02-21T04:11:45;9.20;;;5.43;;
1699;SDS011;847;48.058;7.810;2023-02-21T04:14:14;8.40;;;4.93;;
1699;SDS011;847;48.058;7.810;2023-02-21T04:16:40;6.83;;;5.13;;
1699;SDS011;847;48.058;7.810;2023-02-21T04:19:07;7.17;;;4.47;;
1699;SDS011;847;48.058;7.810;2023-02-21T04:21:34;7.23;;;4.83;;
1699;SDS011;847;48.058;7.810;2023-02-21T04:24:01;8.43;;;5.30;;
1699;SDS011;847;48.058;7.810;2023-02-21T04:26:27;7.43;;;5.10;;
1699;SDS011;847;48.058;7.810;2023-02-21T04:28:55;11.27;;;6.20;;
1699;SDS011;847;48.058;7.810;2023-02-21T04:31:23;8.30;;;6.03;;
1699;SDS011;847;48.058;7.810;2023-02-21T04:33:50;5.67;;;4.97;;
1699;SDS011;847;48.058;7.810;2023-02-21T04:36:16;6.37;;;4.80;;
1699;SDS011;847;48.058;7.810;2023-02-21T04:38:43;6.23;;;4.00;;
1699;SDS011;847;48.058;7.810;2023-02-21T04:41:10;7.20;;;4.97;;
1699;SDS011;847;48.058;7.810;2023-02-21T04:43:37;8.47;;;4.10;;
1699;SDS011;847;48.058;7.810;2023-02-21T04:46:06;3.73;;;3.40;;
1699;SDS011;847;48.058;7.810;2023-02-21T04:48:34;5.60;;;4.30;;
1699;SDS011;847;48.058;7.810;2023-02-21T04:51:01;10.10;;;3.70;;
1699;SDS011;847;48.058;7.810;2023-02-21T04:53:28;6.20;;;3.70;;
1699;SDS011;847;48.058;7.810;2023-02-21T04:55:54;4.47;;;4.00;;
1699;SDS011;847;48.058;7.810;2023-02-21T04:58:21;4.33;;;3.50;;
1699;SDS011;847;48.058;7.810;2023-02-21T05:00:48;4.47;;;3.53;;
1699;SDS011;847;48.058;7.810;2023-02-21T05:03:15;3.80;;;3.50;;
1699;SDS011;847;48.058;7.810;2023-02-21T05:05:43;5.50;;;3.67;;
1699;SDS011;847;48.058;7.810;2023-02-21T05:08:10;7.83;;;3.60;;
1699;SDS011;847;48.058;7.810;2023-02-21T05:10:37;4.87;;;4.37;;
1699;SDS011;847;48.058;7.810;2023-02-21T05:13:03;5.20;;;3.40;;
1699;SDS011;847;48.058;7.810;2023-02-21T05:15:30;5.43;;;3.37;;
1699;SDS011;847;48.058;7.810;2023-02-21T05:17:57;5.40;;;3.83;;
1699;SDS011;847;48.058;7.810;2023-02-21T05:20:23;6.33;;;3.80;;
1699;SDS011;847;48.058;7.810;2023-02-21T05:22:51;6.23;;;4.50;;
1699;SDS011;847;48.058;7.810;2023-02-21T05:25:19;7.50;;;4.10;;
1699;SDS011;847;48.058;7.810;2023-02-21T05:27:48;5.73;;;4.33;;
1699;SDS011;847;48.058;7.810;2023-02-21T05:30:16;7.20;;;3.93;;
1699;SDS011;847;48.058;7.810;2023-02-21T05:32:44;5.10;;;4.07;;
1699;SDS011;847;48.058;7.810;2023-02-21T05:35:12;4.47;;;4.07;;
1699;SDS011;847;48.058;7.810;2023-02-21T05:37:40;6.53;;;4.13;;
1699;SDS011;847;48.058;7.810;2023-02-21T05:40:10;4.57;;;4.00;;
1699;SDS011;847;48.058;7.810;2023-02-21T05:42:37;7.60;;;4.33;;
1699;SDS011;847;48.058;7.810;2023-02-21T05:45:03;5.47;;;4.27;;
1699;SDS011;847;48.058;7.810;2023-02-21T05:47:32;4.70;;;3.80;;
1699;SDS011;847;48.058;7.810;2023-02-21T05:49:58;7.73;;;3.83;;
1699;SDS011;847;48.058;7.810;2023-02-21T05:52:25;6.53;;;4.00;;
1699;SDS011;847;48.058;7.810;2023-02-21T05:54:52;4.03;;;3.63;;
1699;SDS011;847;48.058;7.810;2023-02-21T05:57:20;6.03;;;4.30;;
1699;SDS011;847;48.058;7.810;2023-02-21T05:59:47;4.50;;;3.87;;
1699;SDS011;847;48.058;7.810;2023-02-21T06:02:14;6.07;;;4.27;;
1699;SDS011;847;48.058;7.810;2023-02-21T06:04:41;5.77;;;4.10;;
1699;SDS011;847;48.058;7.810;2023-02-21T06:07:07;5.13;;;4.33;;
1699;SDS011;847;48.058;7.810;2023-02-21T06:09:34;6.83;;;4.83;;
1699;SDS011;847;48.058;7.810;2023-02-21T06:12:01;4.30;;;3.87;;
1699;SDS011;847;48.058;7.810;2023-02-21T06:14:29;9.50;;;4.50;;
1699;SDS011;847;48.058;7.810;2023-02-21T06:16:56;5.10;;;4.50;;
1699;SDS011;847;48.058;7.810;2023-02-21T06:19:22;4.80;;;3.93;;
1699;SDS011;847;48.058;7.810;2023-02-21T06:21:49;7.70;;;4.07;;
1699;SDS011;847;48.058;7.810;2023-02-21T06:24:16;10.00;;;4.30;;
1699;SDS011;847;48.058;7.810;2023-02-21T06:26:43;4.23;;;3.70;;
1699;SDS011;847;48.058;7.810;2023-02-21T06:29:10;4.73;;;4.13;;
1699;SDS011;847;48.058;7.810;2023-02-21T06:31:38;4.80;;;4.13;;
1699;SDS011;847;48.058;7.810;2023-02-21T06:34:05;4.80;;;4.20;;
1699;SDS011;847;48.058;7.810;2023-02-21T06:36:31;6.53;;;4.67;;
1699;SDS011;847;48.058;7.810;2023-02-21T06:38:59;6.40;;;3.93;;
1699;SDS011;847;48.058;7.810;2023-02-21T06:41:27;5.40;;;4.20;;
1699;SDS011;847;48.058;7.810;2023-02-21T06:43:56;5.57;;;3.87;;
1699;SDS011;847;48.058;7.810;2023-02-21T06:46:24;4.70;;;3.80;;
1699;SDS011;847;48.058;7.810;2023-02-21T06:48:53;4.30;;;3.90;;
1699;SDS011;847;48.058;7.810;2023-02-21T06:51:20;5.80;;;3.97;;
1699;SDS011;847;48.058;7.810;2023-02-21T06:53:53;6.30;;;3.50;;
1699;SDS011;847;48.058;7.810;2023-02-21T06:56:20;6.23;;;4.00;;
1699;SDS011;847;48.058;7.810;2023-02-21T06:58:46;4.30;;;3.40;;
1699;SDS011;847;48.058;7.810;2023-02-21T07:01:13;3.90;;;3.50;;
1699;SDS011;847;48.058;7.810;2023-02-21T07:03:40;6.60;;;4.30;;
1699;SDS011;847;48.058;7.810;2023-02-21T07:06:09;4.00;;;3.30;;
1699;SDS011;847;48.058;7.810;2023-02-21T07:08:37;6.67;;;3.30;;
1699;SDS011;847;48.058;7.810;2023-02-21T07:11:04;6.07;;;3.40;;
1699;SDS011;847;48.058;7.810;2023-02-21T07:13:31;4.50;;;3.33;;
1699;SDS011;847;48.058;7.810;2023-02-21T07:15:58;4.33;;;3.23;;
1699;SDS011;847;48.058;7.810;2023-02-21T07:18:25;7.73;;;3.67;;
1699;SDS011;847;48.058;7.810;2023-02-21T07:20:52;6.40;;;3.10;;
1699;SDS011;847;48.058;7.810;2023-02-21T07:23:21;7.03;;;3.47;;
1699;SDS011;847;48.058;7.810;2023-02-21T07:25:48;4.97;;;3.63;;
1699;SDS011;847;48.058;7.810;2023-02-21T07:28:15;4.53;;;3.63;;
1699;SDS011;847;48.058;7.810;2023-02-21T07:30:42;6.60;;;3.83;;
1699;SDS011;847;48.058;7.810;2023-02-21T07:33:10;5.13;;;3.70;;
1699;SDS011;847;48.058;7.810;2023-02-21T07:35:37;4.30;;;3.50;;
1699;SDS011;847;48.058;7.810;2023-02-21T07:38:04;60.60;;;12.13;;
1699;SDS011;847;48.058;7.810;2023-02-21T07:40:33;20.60;;;7.63;;
1699;SDS011;847;48.058;7.810;2023-02-21T07:43:00;7.90;;;3.90;;
1699;SDS011;847;48.058;7.810;2023-02-21T07:45:27;5.30;;;4.03;;
1699;SDS011;847;48.058;7.810;2023-02-21T07:47:54;5.23;;;3.80;;
1699;SDS011;847;48.058;7.810;2023-02-21T07:50:21;4.87;;;3.90;;
1699;SDS011;847;48.058;7.810;2023-02-21T07:52:51;6.47;;;4.23;;
1699;SDS011;847;48.058;7.810;2023-02-21T07:55:19;7.00;;;4.50;;
1699;SDS011;847;48.058;7.810;2023-02-21T07:57:49;8.70;;;4.50;;
1699;SDS011;847;48.058;7.810;2023-02-21T08:05:38;5.57;;;4.13;;
1699;SDS011;847;48.058;7.810;2023-02-21T08:08:06;8.07;;;4.60;;
1699;SDS011;847;48.058;7.810;2023-02-21T08:10:34;6.80;;;4.53;;
1699;SDS011;847;48.058;7.810;2023-02-21T08:13:03;10.00;;;4.90;;
1699;SDS011;847;48.058;7.810;2023-02-21T08:15:31;9.40;;;4.30;;
1699;SDS011;847;48.058;7.810;2023-02-21T08:17:59;11.40;;;4.80;;
1699;SDS011;847;48.058;7.810;2023-02-21T08:20:26;7.03;;;4.43;;
1699;SDS011;847;48.058;7.810;2023-02-21T08:22:53;12.17;;;5.23;;
1699;SDS011;847;48.058;7.810;2023-02-21T08:25:20;6.47;;;4.03;;
1699;SDS011;847;48.058;7.810;2023-02-21T08:27:48;9.40;;;4.63;;
1699;SDS011;847;48.058;7.810;2023-02-21T08:30:20;5.20;;;3.93;;
1699;SDS011;847;48.058;7.810;2023-02-21T08:32:49;4.57;;;3.90;;
1699;SDS011;847;48.058;7.810;2023-02-21T08:35:16;6.07;;;4.07;;
1699;SDS011;847;48.058;7.810;2023-02-21T08:37:48;6.20;;;4.17;;
1699;SDS011;847;48.058;7.810;2023-02-21T08:40:17;6.17;;;4.47;;
1699;SDS011;847;48.058;7.810;2023-02-21T08:42:49;7.33;;;5.80;;
1699;SDS011;847;48.058;7.810;2023-02-21T08:45:18;10.93;;;5.20;;
1699;SDS011;847;48.058;7.810;2023-02-21T08:47:48;6.50;;;5.43;;
1699;SDS011;847;48.058;7.810;2023-02-21T08:50:16;9.83;;;6.53;;
1699;SDS011;847;48.058;7.810;2023-02-21T08:52:44;7.83;;;7.03;;
1699;SDS011;847;48.058;7.810;2023-02-21T08:55:11;7.27;;;6.13;;
1699;SDS011;847;48.058;7.810;2023-02-21T08:57:39;5.97;;;5.37;;
1699;SDS011;847;48.058;7.810;2023-02-21T09:00:06;6.00;;;5.33;;
1699;SDS011;847;48.058;7.810;2023-02-21T09:02:36;8.07;;;5.23;;
1699;SDS011;847;48.058;7.810;2023-02-21T09:05:05;7.67;;;5.83;;
1699;SDS011;847;48.058;7.810;2023-02-21T09:07:33;7.20;;;5.70;;
1699;SDS011;847;48.058;7.810;2023-02-21T09:10:00;9.27;;;6.60;;
1699;SDS011;847;48.058;7.810;2023-02-21T09:12:27;9.17;;;6.70;;
1699;SDS011;847;48.058;7.810;2023-02-21T09:14:54;7.00;;;6.30;;
1699;SDS011;847;48.058;7.810;2023-02-21T09:17:22;11.87;;;6.43;;
1699;SDS011;847;48.058;7.810;2023-02-21T09:19:50;6.03;;;4.60;;
1699;SDS011;847;48.058;7.810;2023-02-21T09:22:18;11.30;;;6.47;;
1699;SDS011;847;48.058;7.810;2023-02-21T09:24:44;7.30;;;5.90;;
1699;SDS011;847;48.058;7.810;2023-02-21T09:27:11;7.43;;;6.73;;
1699;SDS011;847;48.058;7.810;2023-02-21T09:29:41;7.53;;;6.27;;
1699;SDS011;847;48.058;7.810;2023-02-21T09:32:10;7.60;;;6.90;;
1699;SDS011;847;48.058;7.810;2023-02-21T09:34:36;8.33;;;6.60;;
1699;SDS011;847;48.058;7.810;2023-02-21T09:37:14;9.60;;;7.47;;
1699;SDS011;847;48.058;7.810;2023-02-21T09:39:55;8.50;;;6.80;;
1699;SDS011;847;48.058;7.810;2023-02-21T09:42:29;10.17;;;6.03;;
1699;SDS011;847;48.058;7.810;2023-02-21T09:45:12;9.60;;;5.93;;
1699;SDS011;847;48.058;7.810;2023-02-21T09:47:55;9.60;;;6.00;;
1699;SDS011;847;48.058;7.810;2023-02-21T09:50:28;5.83;;;5.27;;
1699;SDS011;847;48.058;7.810;2023-02-21T09:53:03;7.50;;;6.30;;
1699;SDS011;847;48.058;7.810;2023-02-21T09:55:36;7.90;;;5.70;;
1699;SDS011;847;48.058;7.810;2023-02-21T09:58:10;6.67;;;5.77;;
1699;SDS011;847;48.058;7.810;2023-02-21T10:00:39;8.43;;;7.60;;
1699;SDS011;847;48.058;7.810;2023-02-21T10:03:15;9.43;;;6.50;;
1699;SDS011;847;48.058;7.810;2023-02-21T10:05:53;6.80;;;6.00;;
1699;SDS011;847;48.058;7.810;2023-02-21T10:08:32;8.40;;;7.40;;
1699;SDS011;847;48.058;7.810;2023-02-21T10:11:09;7.23;;;6.53;;
1699;SDS011;847;48.058;7.810;2023-02-21T10:13:51;7.93;;;7.03;;
1699;SDS011;847;48.058;7.810;2023-02-21T10:16:26;11.20;;;8.90;;
1699;SDS011;847;48.058;7.810;2023-02-21T10:18:59;9.90;;;8.90;;
1699;SDS011;847;48.058;7.810;2023-02-21T10:21:34;10.07;;;7.63;;
1699;SDS011;847;48.058;7.810;2023-02-21T10:24:09;8.33;;;7.10;;
1699;SDS011;847;48.058;7.810;2023-02-21T10:26:39;10.73;;;7.13;;
1699;SDS011;847;48.058;7.810;2023-02-21T10:29:16;8.40;;;7.00;;
1699;SDS011;847;48.058;7.810;2023-02-21T10:31:47;9.80;;;8.60;;
1699;SDS011;847;48.058;7.810;2023-02-21T10:34:19;12.53;;;8.67;;
1699;SDS011;847;48.058;7.810;2023-02-21T10:36:49;10.00;;;8.63;;
1699;SDS011;847;48.058;7.810;2023-02-21T10:39:19;10.07;;;8.50;;
1699;SDS011;847;48.058;7.810;2023-02-21T10:41:50;9.47;;;7.23;;
1699;SDS011;847;48.058;7.810;2023-02-21T10:44:18;9.20;;;7.23;;
1699;SDS011;847;48.058;7.810;2023-02-21T10:46:53;8.03;;;6.53;;
1699;SDS011;847;48.058;7.810;2023-02-21T10:49:33;12.23;;;6.50;;
1699;SDS011;847;48.058;7.810;2023-02-21T10:52:09;7.67;;;5.87;;
1699;SDS011;847;48.058;7.810;2023-02-21T10:54:44;9.70;;;5.60;;
1699;SDS011;847;48.058;7.810;2023-02-21T11:00:34;9.23;;;7.07;;
1699;SDS011;847;48.058;7.810;2023-02-21T11:03:06;9.40;;;7.97;;
1699;SDS011;847;48.058;7.810;2023-02-21T11:05:57;11.10;;;7.90;;
1699;SDS011;847;48.058;7.810;2023-02-21T11:08:33;11.23;;;9.20;;
1699;SDS011;847;48.058;7.810;2023-02-21T11:11:04;8.70;;;6.40;;
1699;SDS011;847;48.058;7.810;2023-02-21T11:13:35;10.90;;;8.10;;
1699;SDS011;847;48.058;7.810;2023-02-21T11:16:07;10.40;;;7.40;;
1699;SDS011;847;48.058;7.810;2023-02-21T11:18:37;8.17;;;5.90;;
1699;SDS011;847;48.058;7.810;2023-02-21T11:21:10;11.87;;;7.50;;
1699;SDS011;847;48.058;7.810;2023-02-21T11:23:43;10.60;;;6.13;;
1699;SDS011;847;48.058;7.810;2023-02-21T11:26:17;8.33;;;5.93;;
1699;SDS011;847;48.058;7.810;2023-02-21T11:28:45;10.63;;;7.70;;
1699;SDS011;847;48.058;7.810;2023-02-21T11:31:17;6.23;;;5.27;;
1699;SDS011;847;48.058;7.810;2023-02-21T11:34:08;7.00;;;5.13;;
1699;SDS011;847;48.058;7.810;2023-02-21T11:36:38;11.00;;;7.87;;
1699;SDS011;847;48.058;7.810;2023-02-21T11:39:13;8.10;;;6.50;;
1699;SDS011;847;48.058;7.810;2023-02-21T11:41:45;6.23;;;4.90;;
1699;SDS011;847;48.058;7.810;2023-02-21T11:44:27;5.60;;;5.00;;
1699;SDS011;847;48.058;7.810;2023-02-21T11:47:11;5.77;;;4.60;;
1699;SDS011;847;48.058;7.810;2023-02-21T11:52:21;5.53;;;4.33;;
1699;SDS011;847;48.058;7.810;2023-02-21T11:54:50;6.10;;;4.70;;
1699;SDS011;847;48.058;7.810;2023-02-21T11:57:19;7.73;;;5.20;;
1699;SDS011;847;48.058;7.810;2023-02-21T11:59:53;4.77;;;3.90;;
1699;SDS011;847;48.058;7.810;2023-02-21T12:02:53;8.67;;;4.87;;
1699;SDS011;847;48.058;7.810;2023-02-21T12:05:41;6.07;;;4.93;;
1699;SDS011;847;48.058;7.810;2023-02-21T12:08:37;7.53;;;4.50;;
1699;SDS011;847;48.058;7.810;2023-02-21T12:11:17;6.00;;;4.50;;
1699;SDS011;847;48.058;7.810;2023-02-21T12:13:59;5.70;;;4.47;;
1699;SDS011;847;48.058;7.810;2023-02-21T12:17:04;4.97;;;4.47;;
1699;SDS011;847;48.058;7.810;2023-02-21T12:20:00;6.13;;;4.70;;
1699;SDS011;847;48.058;7.810;2023-02-21T12:25:11;5.00;;;4.20;;
1699;SDS011;847;48.058;7.810;2023-02-21T12:28:10;5.47;;;3.57;;
1699;SDS011;847;48.058;7.810;2023-02-21T12:30:49;5.30;;;4.17;;
1699;SDS011;847;48.058;7.810;2023-02-21T12:33:33;8.20;;;4.63;;
1699;SDS011;847;48.058;7.810;2023-02-21T12:36:16;7.20;;;3.60;;
1699;SDS011;847;48.058;7.810;2023-02-21T12:38:52;5.70;;;4.37;;
1699;SDS011;847;48.058;7.810;2023-02-21T12:41:29;5.30;;;4.23;;
1699;SDS011;847;48.058;7.810;2023-02-21T12:44:11;8.47;;;3.97;;
1699;SDS011;847;48.058;7.810;2023-02-21T12:46:41;7.00;;;3.80;;
1699;SDS011;847;48.058;7.810;2023-02-21T12:49:15;4.90;;;3.93;;
1699;SDS011;847;48.058;7.810;2023-02-21T12:51:49;4.07;;;3.20;;
1699;SDS011;847;48.058;7.810;2023-02-21T12:54:33;7.67;;;3.80;;
1699;SDS011;847;48.058;7.810;2023-02-21T12:57:06;3.87;;;3.50;;
1699;SDS011;847;48.058;7.810;2023-02-21T12:59:43;3.63;;;2.80;;
1699;SDS011;847;48.058;7.810;2023-02-21T13:02:20;6.07;;;3.60;;
1699;SDS011;847;48.058;7.810;2023-02-21T13:04:52;4.50;;;2.87;;
1699;SDS011;847;48.058;7.810;2023-02-21T13:07:22;4.07;;;3.70;;
1699;SDS011;847;48.058;7.810;2023-02-21T13:09:58;6.37;;;3.87;;
1699;SDS011;847;48.058;7.810;2023-02-21T13:12:30;5.47;;;3.53;;
1699;SDS011;847;48.058;7.810;2023-02-21T13:15:12;5.10;;;3.50;;
1699;SDS011;847;48.058;7.810;2023-02-21T13:17:47;4.80;;;2.70;;
1699;SDS011;847;48.058;7.810;2023-02-21T13:20:17;4.13;;;2.80;;
1699;SDS011;847;48.058;7.810;2023-02-21T13:26:00;5.03;;;3.50;;
1699;SDS011;847;48.058;7.810;2023-02-21T13:28:39;4.03;;;3.30;;
1699;SDS011;847;48.058;7.810;2023-02-21T13:31:16;3.00;;;2.47;;
1699;SDS011;847;48.058;7.810;2023-02-21T13:33:48;2.90;;;2.60;;
1699;SDS011;847;48.058;7.810;2023-02-21T13:36:20;3.63;;;3.33;;
1699;SDS011;847;48.058;7.810;2023-02-21T13:38:59;6.10;;;2.33;;
1699;SDS011;847;48.058;7.810;2023-02-21T13:41:32;3.80;;;2.63;;
1699;SDS011;847;48.058;7.810;2023-02-21T13:44:04;2.73;;;1.93;;
1699;SDS011;847;48.058;7.810;2023-02-21T13:49:42;2.13;;;1.93;;
1699;SDS011;847;48.058;7.810;2023-02-21T13:52:23;1.70;;;1.57;;
1699;SDS011;847;48.058;7.810;2023-02-21T14:00:55;2.07;;;1.87;;
1699;SDS011;847;48.058;7.810;2023-02-21T14:03:29;2.73;;;2.00;;
1699;SDS011;847;48.058;7.810;2023-02-21T14:08:54;6.53;;;3.10;;
1699;SDS011;847;48.058;7.810;2023-02-21T14:11:26;5.13;;;2.43;;
1699;SDS011;847;48.058;7.810;2023-02-21T14:13:56;3.90;;;2.67;;
1699;SDS011;847;48.058;7.810;2023-02-21T14:16:25;2.90;;;2.00;;
1699;SDS011;847;48.058;7.810;2023-02-21T14:18:58;2.00;;;1.80;;
1699;SDS011;847;48.058;7.810;2023-02-21T14:21:31;2.13;;;1.93;;
1699;SDS011;847;48.058;7.810;2023-02-21T14:24:02;3.30;;;1.67;;
1699;SDS011;847;48.058;7.810;2023-02-21T14:26:33;3.57;;;1.93;;
1699;SDS011;847;48.058;7.810;2023-02-21T14:29:12;2.70;;;1.70;;
1699;SDS011;847;48.058;7.810;2023-02-21T14:31:54;2.20;;;1.90;;
1699;SDS011;847;48.058;7.810;2023-02-21T14:34:25;2.33;;;1.80;;
1699;SDS011;847;48.058;7.810;2023-02-21T14:36:59;3.10;;;1.80;;
1699;SDS011;847;48.058;7.810;2023-02-21T14:39:30;1.83;;;1.47;;
1699;SDS011;847;48.058;7.810;2023-02-21T14:44:51;5.80;;;1.57;;
1699;SDS011;847;48.058;7.810;2023-02-21T14:47:43;2.40;;;1.30;;
1699;SDS011;847;48.058;7.810;2023-02-21T14:50:28;4.17;;;1.50;;
1699;SDS011;847;48.058;7.810;2023-02-21T14:53:06;1.77;;;1.67;;
1699;SDS011;847;48.058;7.810;2023-02-21T14:56:04;2.60;;;1.70;;
1699;SDS011;847;48.058;7.810;2023-02-21T14:58:52;2.70;;;1.37;;
1699;SDS011;847;48.058;7.810;2023-02-21T15:01:38;2.50;;;1.50;;
1699;SDS011;847;48.058;7.810;2023-02-21T15:04:11;3.63;;;1.50;;
1699;SDS011;847;48.058;7.810;2023-02-21T15:06:54;1.77;;;1.30;;
1699;SDS011;847;48.058;7.810;2023-02-21T15:09:30;1.43;;;1.20;;
1699;SDS011;847;48.058;7.810;2023-02-21T15:11:56;1.63;;;1.43;;
1699;SDS011;847;48.058;7.810;2023-02-21T15:14:25;2.93;;;1.60;;
1699;SDS011;847;48.058;7.810;2023-02-21T15:16:54;4.40;;;1.70;;
1699;SDS011;847;48.058;7.810;2023-02-21T15:19:27;3.23;;;1.77;;
1699;SDS011;847;48.058;7.810;2023-02-21T15:27:52;3.13;;;1.57;;
1699;SDS011;847;48.058;7.810;2023-02-21T15:30:24;2.03;;;1.30;;
1699;SDS011;847;48.058;7.810;2023-02-21T15:32:55;2.93;;;1.70;;
1699;SDS011;847;48.058;7.810;2023-02-21T15:35:26;1.60;;;1.50;;
1699;SDS011;847;48.058;7.810;2023-02-21T15:38:00;2.90;;;1.17;;
1699;SDS011;847;48.058;7.810;2023-02-21T15:40:29;2.90;;;1.57;;
1699;SDS011;847;48.058;7.810;2023-02-21T15:42:58;3.00;;;1.77;;
1699;SDS011;847;48.058;7.810;2023-02-21T15:45:27;2.57;;;1.37;;
1699;SDS011;847;48.058;7.810;2023-02-21T15:48:03;3.70;;;1.47;;
1699;SDS011;847;48.058;7.810;2023-02-21T15:50:31;1.90;;;1.43;;
1699;SDS011;847;48.058;7.810;2023-02-21T15:53:12;3.87;;;1.90;;
1699;SDS011;847;48.058;7.810;2023-02-21T15:55:41;2.80;;;1.50;;
1699;SDS011;847;48.058;7.810;2023-02-21T15:58:15;3.80;;;1.67;;
1699;SDS011;847;48.058;7.810;2023-02-21T16:00:45;9.50;;;2.00;;
1699;SDS011;847;48.058;7.810;2023-02-21T16:03:25;4.43;;;2.30;;
1699;SDS011;847;48.058;7.810;2023-02-21T16:06:13;4.20;;;1.60;;
1699;SDS011;847;48.058;7.810;2023-02-21T16:08:52;2.30;;;1.50;;
1699;SDS011;847;48.058;7.810;2023-02-21T16:11:24;4.27;;;2.07;;
1699;SDS011;847;48.058;7.810;2023-02-21T16:13:53;3.67;;;2.20;;
1699;SDS011;847;48.058;7.810;2023-02-21T16:16:20;2.90;;;2.47;;
1699;SDS011;847;48.058;7.810;2023-02-21T16:18:53;2.10;;;1.80;;
1699;SDS011;847;48.058;7.810;2023-02-21T16:21:28;2.13;;;1.93;;
1699;SDS011;847;48.058;7.810;2023-02-21T16:27:03;1.63;;;1.50;;
1699;SDS011;847;48.058;7.810;2023-02-21T16:29:32;2.70;;;2.10;;
1699;SDS011;847;48.058;7.810;2023-02-21T16:31:59;5.07;;;2.43;;
1699;SDS011;847;48.058;7.810;2023-02-21T16:34:27;4.07;;;1.50;;
1699;SDS011;847;48.058;7.810;2023-02-21T16:37:00;2.67;;;2.27;;
1699;SDS011;847;48.058;7.810;2023-02-21T16:39:29;2.63;;;1.93;;
1699;SDS011;847;48.058;7.810;2023-02-21T16:41:56;2.70;;;2.10;;
1699;SDS011;847;48.058;7.810;2023-02-21T16:44:23;3.33;;;2.50;;
1699;SDS011;847;48.058;7.810;2023-02-21T16:46:52;3.13;;;2.03;;
1699;SDS011;847;48.058;7.810;2023-02-21T16:49:19;4.77;;;2.50;;
1699;SDS011;847;48.058;7.810;2023-02-21T16:51:46;4.77;;;2.47;;
1699;SDS011;847;48.058;7.810;2023-02-21T16:56:49;9.20;;;3.30;;
1699;SDS011;847;48.058;7.810;2023-02-21T16:59:18;11.20;;;3.20;;
1699;SDS011;847;48.058;7.810;2023-02-21T17:01:49;9.60;;;3.93;;
1699;SDS011;847;48.058;7.810;2023-02-21T17:04:18;9.20;;;4.10;;